Time;durP1;ratioP1;P1;durP2;ratioP2;P2;SDS_P1;SDS_P2;PMS_P1;PMS_P2;Temp;Humidity;BMP_temperature;BMP_pressure;BME280_temperature;BME280_humidity;BME280_pressure;Samples;Min_cycle;Max_cycle;Signal;HPM_P1;HPM_P2
2022/10/20 00:00:00;;;;;;;3.65;2.08;;;;;16.50;101613.00;;;;5094863;28;20193;-79
2022/10/20 00:02:27;;;;;;;2.35;1.95;;;;;16.50;101599.00;;;;5104403;28;20204;-78
2022/10/20 00:04:55;;;;;;;2.70;2.10;;;;;16.40;101608.00;;;;5090988;28;20198;-79
2022/10/20 00:07:23;;;;;;;3.85;2.25;;;;;16.50;101598.00;;;;5098426;28;20197;-78
2022/10/20 00:09:50;;;;;;;4.05;1.80;;;;;16.50;101597.00;;;;5099561;28;20224;-77
2022/10/20 00:12:19;;;;;;;8.55;2.33;;;;;16.40;101599.00;;;;5103588;28;20198;-79
2022/10/20 00:14:46;;;;;;;3.28;2.35;;;;;16.50;101585.00;;;;5091113;28;20205;-78
2022/10/20 00:17:13;;;;;;;4.07;2.22;;;;;16.50;101579.00;;;;5090165;28;20204;-78
2022/10/20 00:19:41;;;;;;;6.35;2.38;;;;;16.50;101579.00;;;;5096967;28;20197;-77
2022/10/20 00:22:08;;;;;;;4.22;2.75;;;;;16.50;101584.00;;;;5108603;28;20190;-78
2022/10/20 00:24:35;;;;;;;3.17;2.50;;;;;16.50;101580.00;;;;5090345;28;20202;-77
2022/10/20 00:27:02;;;;;;;3.00;2.28;;;;;16.40;101586.00;;;;5090059;28;20198;-77
2022/10/20 00:29:31;;;;;;;3.60;2.60;;;;;16.40;101582.00;;;;5089156;28;20239;-77
2022/10/20 00:31:58;;;;;;;4.05;2.90;;;;;16.40;101569.00;;;;5089087;28;20230;-77
2022/10/20 00:34:26;;;;;;;3.95;2.65;;;;;16.50;101568.00;;;;5101313;28;20195;-77
2022/10/20 00:36:53;;;;;;;4.93;2.33;;;;;16.40;101556.00;;;;5104356;28;20194;-77
2022/10/20 00:39:20;;;;;;;3.50;2.47;;;;;16.40;101553.00;;;;5110308;28;20214;-77
2022/10/20 00:41:48;;;;;;;4.13;2.65;;;;;16.40;101542.00;;;;5107353;28;20201;-77
2022/10/20 00:44:55;;;;;;;3.67;2.65;;;;;16.30;101546.00;;;;5103181;28;20205;-77
2022/10/20 00:47:34;;;;;;;5.13;3.13;;;;;16.40;101543.00;;;;5107102;28;20280;-77
2022/10/20 00:50:07;;;;;;;3.63;2.88;;;;;16.40;101545.00;;;;5103021;28;20225;-77
2022/10/20 00:52:36;;;;;;;6.45;2.72;;;;;16.40;101546.00;;;;5105469;28;20198;-77
2022/10/20 00:55:04;;;;;;;4.78;2.70;;;;;16.40;101535.00;;;;5096215;28;20197;-77
2022/10/20 00:57:32;;;;;;;3.17;2.13;;;;;16.40;101540.00;;;;5105001;28;20194;-77
2022/10/20 01:00:00;;;;;;;3.15;2.35;;;;;16.40;101542.00;;;;5095298;28;20207;-78
2022/10/20 01:02:28;;;;;;;4.45;2.90;;;;;16.40;101546.00;;;;5099931;28;20198;-77
2022/10/20 01:04:55;;;;;;;4.15;2.70;;;;;16.40;101537.00;;;;5090014;28;20206;-77
2022/10/20 01:07:22;;;;;;;3.47;2.70;;;;;16.40;101526.00;;;;5108177;28;20206;-77
2022/10/20 01:09:50;;;;;;;5.80;3.20;;;;;16.40;101527.00;;;;5097021;28;20225;-77
2022/10/20 01:12:27;;;;;;;6.47;2.65;;;;;16.30;101525.00;;;;5088692;28;20206;-77
2022/10/20 01:15:06;;;;;;;4.95;2.60;;;;;16.30;101513.00;;;;5091926;28;20201;-77
2022/10/20 01:17:43;;;;;;;4.20;2.80;;;;;16.30;101529.00;;;;5095413;28;20212;-77
2022/10/20 01:20:25;;;;;;;8.77;3.45;;;;;16.30;101514.00;;;;5089184;28;20204;-77
2022/10/20 01:23:21;;;;;;;4.53;3.10;;;;;16.20;101516.00;;;;5100206;28;20197;-77
2022/10/20 01:26:08;;;;;;;3.75;2.65;;;;;16.20;101503.00;;;;5098547;28;20593;-77
2022/10/20 01:28:41;;;;;;;6.65;2.75;;;;;16.30;101495.00;;;;5105357;28;20213;-77
2022/10/20 01:31:17;;;;;;;3.60;2.50;;;;;16.20;101488.00;;;;5093856;28;20205;-78
2022/10/20 01:33:52;;;;;;;4.28;3.50;;;;;16.20;101485.00;;;;5089089;28;20230;-78
2022/10/20 01:36:27;;;;;;;3.58;2.88;;;;;16.20;101476.00;;;;5094181;28;20598;-78
2022/10/20 01:39:01;;;;;;;5.30;3.15;;;;;16.20;101471.00;;;;5104192;28;20213;-77
2022/10/20 01:41:33;;;;;;;4.95;3.33;;;;;16.20;101462.00;;;;5087896;28;20194;-78
2022/10/20 01:44:03;;;;;;;3.75;3.40;;;;;16.20;101462.00;;;;5089198;28;20217;-77
2022/10/20 01:46:32;;;;;;;9.63;3.47;;;;;16.20;101474.00;;;;5097970;28;20201;-77
2022/10/20 01:49:02;;;;;;;6.63;3.20;;;;;16.20;101477.00;;;;5102623;28;20218;-78
2022/10/20 01:51:29;;;;;;;3.92;2.65;;;;;16.20;101475.00;;;;5089776;28;20222;-77
2022/10/20 01:53:57;;;;;;;5.93;3.65;;;;;16.20;101460.00;;;;5102699;28;20190;-78
2022/10/20 01:56:33;;;;;;;4.43;2.92;;;;;16.10;101455.00;;;;5097459;28;20202;-78
2022/10/20 01:59:25;;;;;;;4.70;3.25;;;;;16.00;101443.00;;;;5100467;28;20771;-78
2022/10/20 02:02:13;;;;;;;4.72;3.65;;;;;16.00;101424.00;;;;5104689;28;20198;-77
2022/10/20 02:04:54;;;;;;;3.78;2.95;;;;;16.00;101427.00;;;;5093520;28;20573;-77
2022/10/20 02:07:26;;;;;;;7.80;3.47;;;;;16.10;101433.00;;;;5101871;28;20205;-78
2022/10/20 02:09:59;;;;;;;5.90;4.00;;;;;16.10;101426.00;;;;5088205;28;20225;-78
2022/10/20 02:12:31;;;;;;;4.38;3.17;;;;;16.10;101420.00;;;;5096579;28;20202;-77
2022/10/20 02:15:02;;;;;;;4.57;3.30;;;;;16.10;101424.00;;;;5104004;28;20198;-77
2022/10/20 02:17:29;;;;;;;5.53;3.53;;;;;16.10;101428.00;;;;5089409;28;20201;-77
2022/10/20 02:19:58;;;;;;;7.15;3.78;;;;;16.10;101429.00;;;;5097901;28;20194;-77
2022/10/20 02:22:26;;;;;;;5.97;3.67;;;;;16.10;101423.00;;;;5101093;28;21061;-78
2022/10/20 02:24:54;;;;;;;4.53;3.50;;;;;16.10;101432.00;;;;5090382;28;20239;-77
2022/10/20 02:27:26;;;;;;;4.30;3.75;;;;;16.00;101426.00;;;;5092029;28;20194;-78
2022/10/20 02:29:58;;;;;;;4.93;3.85;;;;;16.00;101424.00;;;;5097263;28;20222;-79
2022/10/20 02:32:29;;;;;;;6.40;3.88;;;;;16.00;101418.00;;;;5088128;28;20241;-78
2022/10/20 02:34:56;;;;;;;4.88;3.75;;;;;16.10;101418.00;;;;5077329;28;20205;-78
2022/10/20 02:37:23;;;;;;;5.32;3.63;;;;;16.10;101404.00;;;;5098639;28;20202;-76
2022/10/20 02:39:51;;;;;;;7.38;4.35;;;;;16.10;101399.00;;;;5093270;28;20196;-77
2022/10/20 02:42:18;;;;;;;6.97;4.18;;;;;16.00;101394.00;;;;5092119;28;20194;-76
2022/10/20 02:44:45;;;;;;;4.50;3.97;;;;;16.00;101389.00;;;;5088677;28;20661;-76
2022/10/20 02:47:13;;;;;;;6.78;4.25;;;;;16.00;101388.00;;;;5088082;28;20205;-77
2022/10/20 02:49:41;;;;;;;4.47;3.58;;;;;16.00;101386.00;;;;5106808;28;20210;-76
2022/10/20 02:52:09;;;;;;;6.05;4.45;;;;;16.00;101389.00;;;;5092555;28;20198;-77
2022/10/20 02:54:36;;;;;;;7.78;4.15;;;;;16.00;101378.00;;;;5096957;28;20190;-77
2022/10/20 02:57:03;;;;;;;4.82;3.75;;;;;16.00;101369.00;;;;5108594;28;20197;-77
2022/10/20 02:59:31;;;;;;;5.43;3.95;;;;;16.00;101361.00;;;;5105868;28;20205;-77
2022/10/20 03:01:58;;;;;;;7.50;4.30;;;;;16.00;101360.00;;;;5098060;28;20664;-77
2022/10/20 03:04:25;;;;;;;6.25;4.80;;;;;16.00;101336.00;;;;5096212;28;20212;-77
2022/10/20 03:06:54;;;;;;;5.22;4.13;;;;;16.00;101340.00;;;;5104548;28;20186;-77
2022/10/20 03:09:21;;;;;;;5.20;3.90;;;;;16.00;101337.00;;;;5100813;28;20217;-77
2022/10/20 03:11:48;;;;;;;5.45;4.28;;;;;16.00;101329.00;;;;5090887;28;20194;-76
2022/10/20 03:14:16;;;;;;;7.85;4.57;;;;;16.00;101320.00;;;;5094625;28;20204;-76
2022/10/20 03:16:43;;;;;;;5.95;3.65;;;;;16.00;101320.00;;;;5109164;28;20194;-77
2022/10/20 03:19:10;;;;;;;4.38;3.80;;;;;16.00;101329.00;;;;5102675;28;20202;-76
2022/10/20 03:21:38;;;;;;;7.40;4.35;;;;;16.00;101330.00;;;;5101809;28;20191;-77
2022/10/20 03:24:07;;;;;;;4.43;3.70;;;;;16.00;101325.00;;;;5088005;28;21345;-77
2022/10/20 03:26:34;;;;;;;6.40;4.82;;;;;16.00;101321.00;;;;5091623;28;20217;-76
2022/10/20 03:29:02;;;;;;;6.68;4.18;;;;;16.00;101303.00;;;;5087727;28;20197;-77
2022/10/20 03:31:29;;;;;;;7.25;4.32;;;;;16.00;101288.00;;;;5087726;28;20206;-77
2022/10/20 03:33:56;;;;;;;4.95;3.90;;;;;16.00;101296.00;;;;5087618;28;20232;-77
2022/10/20 03:36:24;;;;;;;6.18;4.88;;;;;16.00;101289.00;;;;5089400;28;20209;-77
2022/10/20 03:38:51;;;;;;;5.40;4.22;;;;;16.00;101292.00;;;;5095414;28;20194;-76
2022/10/20 03:41:20;;;;;;;6.40;4.97;;;;;16.00;101283.00;;;;5095353;28;20198;-76
2022/10/20 03:43:47;;;;;;;6.93;4.70;;;;;16.10;101280.00;;;;5112451;28;20201;-76
2022/10/20 03:46:15;;;;;;;5.15;4.28;;;;;16.10;101280.00;;;;5091055;28;20205;-77
2022/10/20 03:48:42;;;;;;;7.22;3.97;;;;;16.10;101278.00;;;;5091573;28;20194;-76
2022/10/20 03:51:11;;;;;;;5.80;4.18;;;;;16.10;101275.00;;;;5109290;28;20231;-76
2022/10/20 03:53:39;;;;;;;5.38;3.90;;;;;16.10;101268.00;;;;5111683;28;20198;-76
2022/10/20 03:56:07;;;;;;;7.85;4.20;;;;;16.10;101257.00;;;;5103327;28;20209;-77
2022/10/20 03:58:36;;;;;;;7.05;4.60;;;;;16.10;101258.00;;;;5111947;28;20189;-77
2022/10/20 04:01:05;;;;;;;5.75;3.88;;;;;16.20;101250.00;;;;5107828;28;20201;-77
2022/10/20 04:03:32;;;;;;;8.98;3.95;;;;;16.20;101244.00;;;;5091281;28;20194;-76
2022/10/20 04:06:00;;;;;;;8.05;4.72;;;;;16.20;101241.00;;;;5090818;28;20198;-77
2022/10/20 04:08:27;;;;;;;6.22;4.10;;;;;16.20;101255.00;;;;5090751;28;20202;-76
2022/10/20 04:10:54;;;;;;;5.40;3.97;;;;;16.20;101265.00;;;;5099810;28;20245;-76
2022/10/20 04:13:21;;;;;;;7.32;4.30;;;;;16.20;101264.00;;;;5091487;28;20198;-76
2022/10/20 04:15:50;;;;;;;6.18;4.57;;;;;16.20;101256.00;;;;5090045;28;20592;-76
2022/10/20 04:18:17;;;;;;;7.20;4.60;;;;;16.20;101252.00;;;;5089726;28;20197;-76
2022/10/20 04:20:44;;;;;;;7.60;4.15;;;;;16.30;101242.00;;;;5090344;28;20198;-76
2022/10/20 04:23:12;;;;;;;8.07;4.70;;;;;16.30;101232.00;;;;5100579;28;20194;-76
2022/10/20 04:25:44;;;;;;;5.85;4.28;;;;;16.20;101229.00;;;;5097107;28;20221;-76
2022/10/20 04:28:11;;;;;;;10.05;4.88;;;;;16.30;101232.00;;;;5093577;28;20255;-77
2022/10/20 04:30:39;;;;;;;5.60;4.00;;;;;16.20;101236.00;;;;5090031;28;20276;-77
2022/10/20 04:33:08;;;;;;;5.60;4.05;;;;;16.20;101225.00;;;;5100343;28;20594;-76
2022/10/20 04:35:35;;;;;;;6.95;4.65;;;;;16.30;101223.00;;;;5091825;28;20201;-77
2022/10/20 04:38:03;;;;;;;5.75;4.18;;;;;16.20;101222.00;;;;5090174;28;20194;-77
2022/10/20 04:40:30;;;;;;;8.05;5.07;;;;;16.20;101223.00;;;;5103597;28;20570;-77
2022/10/20 04:42:59;;;;;;;5.45;4.13;;;;;16.20;101228.00;;;;5094369;28;20575;-77
2022/10/20 04:45:27;;;;;;;6.43;3.80;;;;;16.20;101226.00;;;;5090521;28;20198;-77
2022/10/20 04:47:54;;;;;;;5.22;4.32;;;;;16.20;101223.00;;;;5101211;28;20202;-77
2022/10/20 04:50:23;;;;;;;6.85;4.57;;;;;16.20;101209.00;;;;5096733;28;20225;-77
2022/10/20 04:52:50;;;;;;;6.35;4.35;;;;;16.20;101205.00;;;;5090024;28;20687;-77
2022/10/20 04:55:19;;;;;;;5.32;4.18;;;;;16.20;101202.00;;;;5088435;28;20202;-77
2022/10/20 04:57:46;;;;;;;6.45;4.65;;;;;16.20;101188.00;;;;5096578;28;20193;-77
2022/10/20 05:00:14;;;;;;;7.13;4.10;;;;;16.20;101199.00;;;;5090670;28;20202;-77
2022/10/20 05:02:42;;;;;;;6.78;4.10;;;;;16.20;101204.00;;;;5090419;28;20202;-77
2022/10/20 05:05:09;;;;;;;6.95;3.83;;;;;16.20;101200.00;;;;5106545;27;20201;-76
2022/10/20 05:07:38;;;;;;;5.65;4.22;;;;;16.20;101193.00;;;;5113493;27;20209;-76
2022/10/20 05:10:06;;;;;;;5.97;4.20;;;;;16.20;101187.00;;;;5123212;27;20643;-77
2022/10/20 05:12:34;;;;;;;6.00;4.40;;;;;16.20;101181.00;;;;5115168;27;20634;-77
2022/10/20 05:15:02;;;;;;;6.75;4.43;;;;;16.30;101164.00;;;;5111352;27;20204;-77
2022/10/20 05:17:29;;;;;;;5.18;4.10;;;;;16.30;101161.00;;;;5115782;27;20201;-78
2022/10/20 05:19:57;;;;;;;5.28;4.18;;;;;16.20;101165.00;;;;5112064;27;20205;-76
2022/10/20 05:22:24;;;;;;;5.47;3.90;;;;;16.20;101177.00;;;;5111995;27;20190;-77
2022/10/20 05:24:53;;;;;;;5.18;4.32;;;;;16.20;101181.00;;;;5106935;27;20200;-76
2022/10/20 05:27:20;;;;;;;7.82;4.55;;;;;16.30;101191.00;;;;5111013;27;20198;-76
2022/10/20 05:29:47;;;;;;;7.30;4.00;;;;;16.30;101179.00;;;;5086875;28;20207;-76
2022/10/20 05:32:15;;;;;;;5.25;4.00;;;;;16.20;101167.00;;;;5089771;28;20226;-76
2022/10/20 05:34:42;;;;;;;5.68;4.57;;;;;16.30;101149.00;;;;5096764;28;20212;-76
2022/10/20 05:37:10;;;;;;;5.07;4.38;;;;;16.20;101145.00;;;;5096757;28;20247;-76
2022/10/20 05:39:37;;;;;;;4.65;4.00;;;;;16.20;101147.00;;;;5089010;28;20205;-76
2022/10/20 05:42:06;;;;;;;5.40;4.28;;;;;16.20;101146.00;;;;5090607;28;20291;-76
2022/10/20 05:44:33;;;;;;;5.22;4.00;;;;;16.20;101142.00;;;;5095355;28;20201;-76
2022/10/20 05:47:00;;;;;;;5.70;3.95;;;;;16.20;101146.00;;;;5106409;28;21070;-75
2022/10/20 05:49:28;;;;;;;6.60;3.95;;;;;16.20;101148.00;;;;5081749;28;20197;-75
2022/10/20 05:51:55;;;;;;;5.28;4.38;;;;;16.20;101146.00;;;;5084614;28;20225;-76
2022/10/20 05:54:22;;;;;;;8.80;3.97;;;;;16.20;101138.00;;;;5089310;28;20221;-75
2022/10/20 05:56:50;;;;;;;6.93;3.88;;;;;16.20;101117.00;;;;5087896;27;20813;-76
2022/10/20 05:59:18;;;;;;;4.85;4.22;;;;;16.20;101113.00;;;;5088652;28;20202;-76
2022/10/20 06:01:48;;;;;;;7.95;4.07;;;;;16.30;101110.00;;;;5085139;28;20214;-77
2022/10/20 06:04:17;;;;;;;5.40;4.18;;;;;16.20;101111.00;;;;5088447;28;20206;-77
2022/10/20 06:06:45;;;;;;;6.45;4.60;;;;;16.20;101115.00;;;;5090585;28;20198;-76
2022/10/20 06:09:12;;;;;;;5.40;4.35;;;;;16.20;101135.00;;;;5087331;28;20251;-77
2022/10/20 06:11:40;;;;;;;4.78;3.35;;;;;16.20;101143.00;;;;5105302;28;20237;-76
2022/10/20 06:14:08;;;;;;;6.13;4.15;;;;;16.20;101137.00;;;;5088423;28;20198;-76
2022/10/20 06:16:37;;;;;;;5.70;4.05;;;;;16.20;101142.00;;;;5089142;28;20190;-76
2022/10/20 06:19:06;;;;;;;5.45;4.20;;;;;16.20;101149.00;;;;5096563;28;20205;-76
2022/10/20 06:21:34;;;;;;;5.50;4.53;;;;;16.20;101148.00;;;;5099101;28;20667;-76
2022/10/20 06:24:04;;;;;;;5.50;3.97;;;;;16.20;101153.00;;;;5106452;28;20248;-76
2022/10/20 06:26:32;;;;;;;5.70;4.63;;;;;16.20;101143.00;;;;5096014;28;20210;-76
2022/10/20 06:29:01;;;;;;;6.25;4.50;;;;;16.20;101146.00;;;;5087920;28;20668;-76
2022/10/20 06:31:30;;;;;;;6.55;3.95;;;;;16.20;101138.00;;;;5088608;28;20226;-76
2022/10/20 06:33:59;;;;;;;6.40;5.45;;;;;16.20;101146.00;;;;5105591;28;20229;-77
2022/10/20 06:36:27;;;;;;;9.32;4.47;;;;;16.20;101145.00;;;;5089001;28;20241;-76
2022/10/20 06:38:56;;;;;;;5.68;4.43;;;;;16.20;101141.00;;;;5088512;28;20202;-76
2022/10/20 06:41:24;;;;;;;7.78;4.68;;;;;16.20;101135.00;;;;5101480;28;20194;-77
2022/10/20 06:43:57;;;;;;;8.00;4.03;;;;;16.20;101123.00;;;;5104638;28;20193;-76
2022/10/20 06:46:25;;;;;;;5.35;3.97;;;;;16.20;101118.00;;;;5099116;28;21073;-76
2022/10/20 06:48:53;;;;;;;5.78;4.28;;;;;16.20;101110.00;;;;5108977;28;20738;-76
2022/10/20 06:51:22;;;;;;;9.10;4.38;;;;;16.20;101121.00;;;;5100552;28;20225;-76
2022/10/20 06:53:50;;;;;;;6.47;4.20;;;;;16.20;101126.00;;;;5094463;28;20202;-77
2022/10/20 06:56:19;;;;;;;6.10;4.60;;;;;16.20;101123.00;;;;5088814;28;20210;-75
2022/10/20 06:58:47;;;;;;;7.35;3.92;;;;;16.20;101136.00;;;;5088092;28;20199;-76
2022/10/20 07:01:17;;;;;;;5.70;4.22;;;;;16.20;101141.00;;;;5087692;28;20211;-77
2022/10/20 07:03:45;;;;;;;6.30;4.63;;;;;16.20;101149.00;;;;5092479;28;20205;-76
2022/10/20 07:06:15;;;;;;;6.35;4.68;;;;;16.20;101138.00;;;;5098162;28;20206;-76
2022/10/20 07:08:44;;;;;;;8.07;4.55;;;;;16.20;101131.00;;;;5096381;28;20198;-76
2022/10/20 07:11:13;;;;;;;4.80;4.03;;;;;16.30;101123.00;;;;5096156;28;20225;-76
2022/10/20 07:13:41;;;;;;;9.30;4.47;;;;;16.30;101112.00;;;;5100951;28;20193;-76
2022/10/20 07:16:11;;;;;;;4.63;4.13;;;;;16.30;101102.00;;;;5095136;28;20201;-76
2022/10/20 07:18:39;;;;;;;6.13;4.25;;;;;16.40;101100.00;;;;5091769;28;20205;-76
2022/10/20 07:21:09;;;;;;;12.15;4.65;;;;;16.40;101099.00;;;;5101162;28;20194;-76
2022/10/20 07:23:37;;;;;;;6.88;4.88;;;;;16.40;101103.00;;;;5097081;28;20280;-76
2022/10/20 07:26:07;;;;;;;7.03;4.25;;;;;16.40;101102.00;;;;5095746;28;20702;-76
2022/10/20 07:28:35;;;;;;;6.38;4.45;;;;;16.40;101106.00;;;;5096755;28;20194;-76
2022/10/20 07:31:04;;;;;;;7.68;4.28;;;;;16.50;101113.00;;;;5105087;28;20230;-76
2022/10/20 07:33:32;;;;;;;8.43;4.88;;;;;16.50;101114.00;;;;5091597;28;20234;-76
2022/10/20 07:35:59;;;;;;;7.40;4.57;;;;;16.50;101109.00;;;;5094518;28;20208;-76
2022/10/20 07:38:26;;;;;;;6.50;5.00;;;;;16.60;101109.00;;;;5094124;28;20209;-76
2022/10/20 07:40:53;;;;;;;6.45;4.75;;;;;16.60;101117.00;;;;5091730;28;20205;-76
2022/10/20 07:43:22;;;;;;;5.38;4.65;;;;;16.60;101114.00;;;;5090949;28;20213;-76
2022/10/20 07:45:49;;;;;;;6.90;5.03;;;;;16.60;101114.00;;;;5091985;28;20198;-76
2022/10/20 07:48:17;;;;;;;5.25;4.72;;;;;16.60;101118.00;;;;5091658;28;20194;-77
2022/10/20 07:50:44;;;;;;;6.82;4.32;;;;;16.70;101121.00;;;;5100763;28;20270;-76
2022/10/20 07:53:11;;;;;;;6.15;4.97;;;;;16.70;101113.00;;;;5102811;28;20195;-77
2022/10/20 07:55:38;;;;;;;7.40;4.53;;;;;16.70;101113.00;;;;5092069;28;20199;-76
2022/10/20 07:58:06;;;;;;;6.38;4.45;;;;;16.80;101112.00;;;;5090366;28;20656;-77
2022/10/20 08:00:34;;;;;;;7.18;4.45;;;;;16.80;101099.00;;;;5090815;28;20198;-76
2022/10/20 08:03:02;;;;;;;8.00;4.57;;;;;16.80;101102.00;;;;5091295;28;20683;-76
2022/10/20 08:05:29;;;;;;;6.90;4.50;;;;;16.80;101096.00;;;;5099145;28;20212;-76
2022/10/20 08:07:56;;;;;;;4.95;4.20;;;;;16.90;101099.00;;;;5111727;28;20197;-76
2022/10/20 08:10:24;;;;;;;7.55;4.70;;;;;16.90;101106.00;;;;5106692;28;20667;-76
2022/10/20 08:12:51;;;;;;;6.65;5.00;;;;;17.00;101094.00;;;;5103519;28;20555;-76
2022/10/20 08:15:18;;;;;;;8.90;4.15;;;;;17.00;101099.00;;;;5091287;28;20209;-76
2022/10/20 08:17:47;;;;;;;8.18;4.65;;;;;17.00;101095.00;;;;5091680;28;20217;-76
2022/10/20 08:20:14;;;;;;;8.15;4.50;;;;;17.00;101084.00;;;;5099033;28;20193;-75
2022/10/20 08:22:42;;;;;;;5.85;5.00;;;;;17.10;101084.00;;;;5105576;28;20731;-76
2022/10/20 08:25:13;;;;;;;5.53;4.15;;;;;17.10;101083.00;;;;5110224;28;20300;-77
2022/10/20 08:27:41;;;;;;;6.43;4.05;;;;;17.10;101076.00;;;;5089881;28;20697;-76
2022/10/20 08:30:09;;;;;;;7.07;4.43;;;;;17.20;101080.00;;;;5090576;28;20217;-76
2022/10/20 08:32:36;;;;;;;6.15;4.32;;;;;17.20;101079.00;;;;5090006;28;20700;-76
2022/10/20 08:35:05;;;;;;;7.28;5.38;;;;;17.20;101072.00;;;;5091759;28;20687;-77
2022/10/20 08:37:35;;;;;;;6.55;4.82;;;;;17.30;101075.00;;;;5094916;28;20205;-76
2022/10/20 08:40:02;;;;;;;7.30;4.75;;;;;17.30;101068.00;;;;5107475;28;20205;-77
2022/10/20 08:42:32;;;;;;;7.57;4.55;;;;;17.30;101073.00;;;;5091136;28;20194;-76
2022/10/20 08:45:00;;;;;;;6.15;4.63;;;;;17.40;101066.00;;;;5097196;28;20193;-76
2022/10/20 08:47:32;;;;;;;9.32;4.78;;;;;17.40;101074.00;;;;5097509;28;20210;-76
2022/10/20 08:50:00;;;;;;;6.43;4.45;;;;;17.50;101068.00;;;;5090586;28;20190;-76
2022/10/20 08:52:29;;;;;;;6.70;4.75;;;;;17.50;101064.00;;;;5089776;28;20224;-75
2022/10/20 08:54:58;;;;;;;6.47;4.20;;;;;17.50;101079.00;;;;5095491;28;20201;-76
2022/10/20 08:57:27;;;;;;;5.38;4.88;;;;;17.60;101073.00;;;;5101657;28;20194;-76
2022/10/20 08:59:58;;;;;;;6.78;4.35;;;;;17.60;101065.00;;;;5092642;28;20193;-75
2022/10/20 09:02:29;;;;;;;5.35;4.40;;;;;17.70;101062.00;;;;5093092;28;20202;-75
2022/10/20 09:05:00;;;;;;;5.45;4.20;;;;;17.70;101053.00;;;;5098672;28;20197;-76
2022/10/20 09:07:32;;;;;;;5.10;4.32;;;;;17.70;101052.00;;;;5089408;28;20194;-75
2022/10/20 09:10:07;;;;;;;5.40;4.63;;;;;17.80;101053.00;;;;5095940;28;20201;-75
2022/10/20 09:12:35;;;;;;;5.90;4.85;;;;;17.80;101045.00;;;;5092326;28;20235;-75
2022/10/20 09:15:03;;;;;;;8.23;4.90;;;;;17.90;101039.00;;;;5101571;28;20212;-75
2022/10/20 09:17:30;;;;;;;6.78;4.72;;;;;17.90;101035.00;;;;5089922;28;20220;-76
2022/10/20 09:20:00;;;;;;;5.88;4.65;;;;;17.90;101032.00;;;;5102082;28;20213;-77
2022/10/20 09:22:29;;;;;;;6.07;4.40;;;;;18.00;101027.00;;;;5099271;28;20202;-76
2022/10/20 09:24:59;;;;;;;7.88;4.68;;;;;18.00;101036.00;;;;5089174;28;20217;-76
2022/10/20 09:27:33;;;;;;;7.30;5.03;;;;;18.00;101041.00;;;;5090548;28;20571;-76
2022/10/20 09:30:15;;;;;;;8.18;4.90;;;;;18.00;101036.00;;;;5090998;28;20292;-77
2022/10/20 09:32:42;;;;;;;7.85;4.93;;;;;18.10;101034.00;;;;5089617;28;20230;-77
2022/10/20 09:35:21;;;;;;;7.03;4.50;;;;;18.10;101037.00;;;;5089431;28;20923;-77
2022/10/20 09:38:02;;;;;;;7.20;4.75;;;;;18.10;101029.00;;;;5100530;28;20193;-76
2022/10/20 09:40:31;;;;;;;6.47;4.40;;;;;18.20;101036.00;;;;5102512;28;20202;-76
2022/10/20 09:43:02;;;;;;;7.15;4.88;;;;;18.20;101031.00;;;;5091363;28;20202;-76
2022/10/20 09:45:31;;;;;;;5.97;5.03;;;;;18.30;101030.00;;;;5100952;28;20198;-76
2022/10/20 09:48:07;;;;;;;7.20;4.85;;;;;18.30;101018.00;;;;5101538;28;20228;-77
2022/10/20 09:50:37;;;;;;;7.15;4.97;;;;;18.40;101014.00;;;;5094891;28;20193;-77
2022/10/20 09:53:06;;;;;;;6.85;5.28;;;;;18.40;101021.00;;;;5087334;28;20687;-76
2022/10/20 09:55:41;;;;;;;10.63;5.47;;;;;18.40;101020.00;;;;5088767;28;20197;-76
2022/10/20 09:58:18;;;;;;;8.60;5.05;;;;;18.50;101019.00;;;;5091812;28;20604;-76
2022/10/20 10:00:56;;;;;;;6.15;5.07;;;;;18.50;101027.00;;;;5089090;28;20194;-76
2022/10/20 10:03:24;;;;;;;10.02;5.30;;;;;18.60;101031.00;;;;5099813;28;20201;-76
2022/10/20 10:05:54;;;;;;;7.75;5.30;;;;;18.70;101027.00;;;;5090565;28;20208;-76
2022/10/20 10:08:23;;;;;;;6.82;5.10;;;;;18.70;101029.00;;;;5092869;28;20201;-75
2022/10/20 10:11:15;;;;;;;7.88;5.35;;;;;18.70;101024.00;;;;5101416;28;20201;-77
2022/10/20 10:13:46;;;;;;;6.93;5.30;;;;;18.80;101024.00;;;;5093582;28;20206;-77
2022/10/20 10:16:15;;;;;;;8.80;5.88;;;;;18.90;101030.00;;;;5102094;28;20201;-77
2022/10/20 10:18:45;;;;;;;9.70;5.95;;;;;18.90;101034.00;;;;5097103;28;20209;-78
2022/10/20 10:21:16;;;;;;;6.68;5.50;;;;;18.90;101030.00;;;;5100975;28;20201;-78
2022/10/20 10:23:52;;;;;;;9.48;5.50;;;;;18.90;101029.00;;;;5104114;28;20200;-77
2022/10/20 10:26:47;;;;;;;9.07;5.60;;;;;18.90;101030.00;;;;5109573;28;20216;-77
2022/10/20 10:29:23;;;;;;;6.95;5.82;;;;;19.00;101030.00;;;;5106331;27;20196;-76
2022/10/20 10:31:56;;;;;;;7.47;5.50;;;;;19.10;101022.00;;;;5103902;28;20214;-76
2022/10/20 10:34:46;;;;;;;16.00;6.28;;;;;19.10;101004.00;;;;5102392;28;20574;-77
2022/10/20 10:37:16;;;;;;;7.93;4.70;;;;;19.20;101000.00;;;;5114095;28;20198;-76
2022/10/20 10:39:57;;;;;;;6.55;5.43;;;;;19.10;100987.00;;;;5098876;28;20214;-76
2022/10/20 10:42:54;;;;;;;6.78;5.28;;;;;19.10;100986.00;;;;5110038;28;20204;-77
2022/10/20 10:45:39;;;;;;;5.97;5.28;;;;;19.20;100994.00;;;;5096185;28;20213;-77
2022/10/20 10:48:41;;;;;;;7.43;5.35;;;;;19.20;100992.00;;;;5095279;28;20197;-77
2022/10/20 10:51:25;;;;;;;6.57;5.00;;;;;19.20;101000.00;;;;5103059;28;20208;-78
2022/10/20 10:54:10;;;;;;;7.70;5.18;;;;;19.20;101004.00;;;;5098362;28;20560;-78
2022/10/20 10:56:44;;;;;;;7.47;5.53;;;;;19.30;100996.00;;;;5096759;28;20206;-78
2022/10/20 10:59:18;;;;;;;7.25;5.95;;;;;19.30;100978.00;;;;5094366;28;20220;-78
2022/10/20 11:02:09;;;;;;;9.93;5.93;;;;;19.30;100973.00;;;;5095135;28;20548;-78
2022/10/20 11:05:13;;;;;;;8.02;5.88;;;;;19.30;100971.00;;;;5100274;28;20195;-78
2022/10/20 11:07:46;;;;;;;8.55;5.70;;;;;19.40;100956.00;;;;5088693;28;20205;-78
2022/10/20 11:10:20;;;;;;;7.28;5.63;;;;;19.40;100940.00;;;;5087534;28;20198;-79
2022/10/20 11:13:02;;;;;;;12.23;6.93;;;;;19.40;100936.00;;;;5095131;28;20232;-79
2022/10/20 11:15:46;;;;;;;8.40;5.20;;;;;19.40;100936.00;;;;5098703;28;20608;-79
2022/10/20 11:18:24;;;;;;;9.27;6.60;;;;;19.50;100950.00;;;;5095860;28;20201;-79
2022/10/20 11:20:59;;;;;;;6.35;5.60;;;;;19.40;100947.00;;;;5098217;28;20201;-79
2022/10/20 11:23:47;;;;;;;7.40;5.88;;;;;19.40;100959.00;;;;5092939;28;20213;-79
2022/10/20 11:26:22;;;;;;;7.90;5.32;;;;;19.40;100960.00;;;;5087316;28;20599;-79
2022/10/20 11:28:52;;;;;;;9.18;5.80;;;;;19.50;100954.00;;;;5094502;28;20201;-79
2022/10/20 11:31:29;;;;;;;7.38;5.63;;;;;19.40;100945.00;;;;5101400;28;20221;-79
2022/10/20 11:34:04;;;;;;;8.23;6.38;;;;;19.40;100953.00;;;;5099908;28;20232;-79
2022/10/20 11:36:36;;;;;;;7.55;5.55;;;;;19.50;100956.00;;;;5095809;28;20221;-79
2022/10/20 11:39:05;;;;;;;10.02;6.07;;;;;19.50;100948.00;;;;5099595;28;20186;-80
2022/10/20 11:41:38;;;;;;;6.95;5.55;;;;;19.50;100947.00;;;;5104442;28;20202;-80
2022/10/20 11:44:12;;;;;;;6.82;5.80;;;;;19.50;100943.00;;;;5093764;28;20202;-77
2022/10/20 11:46:45;;;;;;;6.72;5.25;;;;;19.50;100943.00;;;;5089161;28;20571;-78
2022/10/20 11:49:13;;;;;;;11.10;6.05;;;;;19.50;100938.00;;;;5092067;28;20202;-79
2022/10/20 11:52:10;;;;;;;8.32;5.40;;;;;19.40;100933.00;;;;5095412;28;20186;-79
2022/10/20 11:55:07;;;;;;;11.02;5.75;;;;;19.40;100941.00;;;;5095601;28;20313;-78
2022/10/20 11:57:54;;;;;;;9.48;6.25;;;;;19.40;100932.00;;;;5096159;28;20191;-80
2022/10/20 12:00:47;;;;;;;7.78;5.38;;;;;19.40;100926.00;;;;5101022;28;20194;-80
2022/10/20 12:03:45;;;;;;;8.13;6.10;;;;;19.30;100911.00;;;;5090752;28;20198;-80
2022/10/20 12:06:27;;;;;;;8.73;5.43;;;;;19.40;100912.00;;;;5091439;28;20212;-80
2022/10/20 12:09:13;;;;;;;7.10;6.07;;;;;19.40;100909.00;;;;5090379;28;20216;-80
2022/10/20 12:11:51;;;;;;;11.35;5.53;;;;;19.30;100902.00;;;;5108974;28;20197;-79
2022/10/20 12:14:24;;;;;;;6.57;5.47;;;;;19.40;100902.00;;;;5095890;28;20194;-79
2022/10/20 12:17:13;;;;;;;9.27;6.95;;;;;19.30;100907.00;;;;5093262;28;20225;-79
2022/10/20 12:19:41;;;;;;;11.05;7.60;;;;;19.40;100899.00;;;;5099587;28;20209;-79
2022/10/20 12:22:42;;;;;;;8.43;5.63;;;;;19.30;100895.00;;;;5105480;28;20198;-79
2022/10/20 12:25:33;;;;;;;8.63;6.15;;;;;19.30;100897.00;;;;5093577;28;20218;-79
2022/10/20 12:28:39;;;;;;;9.27;5.60;;;;;19.30;100898.00;;;;5090994;28;20202;-79